Time,TemperatureF,DewpointF,PressureIn,WindDirection,WindDirectionDegrees,WindSpeedMPH,WindSpeedGustMPH,Humidity,HourlyPrecipIn,Conditions,Clouds,dailyrainin,SoftwareType,DateUTC
2013-07-10 00:11:00,80.0,36.0,-100.00,SSE,152,7.0,9.0,20,-99.99,,,-99.99,,2013-07-10 07:11:00,
2013-07-10 01:01:00,75.0,37.0,-100.00,SW,216,3.0,6.0,25,-99.99,,,-99.99,,2013-07-10 08:01:00,
2013-07-10 02:02:00,69.0,40.0,-100.00,North,356,2.0,6.0,34,-99.99,,,-99.99,,2013-07-10 09:02:00,
2013-07-10 02:12:00,69.0,40.0,-100.00,North,356,2.0,6.0,34,-99.99,,,-99.99,,2013-07-10 09:12:00,
2013-07-10 03:01:00,68.0,37.0,-100.00,West,272,3.0,5.0,31,-99.99,,,-99.99,,2013-07-10 10:01:00,
2013-07-10 03:13:00,68.0,37.0,-100.00,West,272,3.0,5.0,31,-99.99,,,-99.99,,2013-07-10 10:13:00,
2013-07-10 04:02:00,72.0,39.0,-100.00,ENE,59,2.0,3.0,30,-99.99,,,-99.99,,2013-07-10 11:02:00,
2013-07-10 06:01:00,65.0,47.0,-100.00,SSE,159,5.0,8.0,52,-99.99,,,-99.99,,2013-07-10 13:01:00,
2013-07-10 06:11:00,65.0,47.0,-100.00,SSE,159,5.0,8.0,52,-99.99,,,-99.99,,2013-07-10 13:11:00,
2013-07-10 07:01:00,65.0,46.0,-100.00,SSE,167,7.0,9.0,50,-99.99,,,-99.99,,2013-07-10 14:01:00,
2013-07-10 07:11:00,65.0,46.0,-100.00,SSE,167,7.0,9.0,50,-99.99,,,-99.99,,2013-07-10 14:11:00,
2013-07-10 08:11:00,73.0,49.0,-100.00,SSW,192,9.0,15.0,42,-99.99,,,-99.99,,2013-07-10 15:11:00,
2013-07-10 09:01:00,77.0,49.0,-100.00,SW,214,7.0,10.0,37,-99.99,,,-99.99,,2013-07-10 16:01:00,
2013-07-10 09:11:00,77.0,49.0,-100.00,SW,214,7.0,10.0,37,-99.99,,,-99.99,,2013-07-10 16:11:00,
2013-07-10 10:02:00,81.0,43.0,-100.00,SW,235,3.0,9.0,26,-99.99,,,-99.99,,2013-07-10 17:02:00,
2013-07-10 11:02:00,86.0,45.0,-100.00,SSW,194,9.0,14.0,23,-99.99,,,-99.99,,2013-07-10 18:02:00,
2013-07-10 11:11:00,86.0,45.0,-100.00,SSW,194,9.0,14.0,23,-99.99,,,-99.99,,2013-07-10 18:11:00,
2013-07-10 12:01:00,89.0,42.0,-100.00,SSW,205,13.0,20.0,19,-99.99,,,-99.99,,2013-07-10 19:01:00,
2013-07-10 12:11:00,89.0,42.0,-100.00,SSW,205,13.0,20.0,19,-99.99,,,-99.99,,2013-07-10 19:11:00,
2013-07-10 13:01:00,93.0,35.0,-100.00,SSW,202,14.0,21.0,13,-99.99,,,-99.99,,2013-07-10 20:01:00,
2013-07-10 15:01:00,97.0,31.0,-100.00,SSW,211,13.0,23.0,9,-99.99,,,-99.99,,2013-07-10 22:01:00,
2013-07-10 16:11:00,98.0,32.0,-100.00,SW,218,12.0,22.0,9,-99.99,,,-99.99,,2013-07-10 23:11:00,
2013-07-10 17:01:00,98.0,34.0,-100.00,South,175,8.0,15.0,10,-99.99,,,-99.99,,2013-07-11 00:01:00,
2013-07-10 17:11:00,98.0,34.0,-100.00,South,175,8.0,15.0,10,-99.99,,,-99.99,,2013-07-11 00:11:00,
2013-07-10 21:01:00,87.0,35.0,-100.00,NW,313,22.0,32.0,15,-99.99,,,-99.99,,2013-07-11 04:01:00,
2013-07-10 21:12:00,87.0,35.0,-100.00,NW,313,22.0,32.0,15,-99.99,,,-99.99,,2013-07-11 04:12:00,